Time;durP1;ratioP1;P1;durP2;ratioP2;P2;SDS_P1;SDS_P2;PMS_P1;PMS_P2;Temp;Humidity;BMP_temperature;BMP_pressure;BME280_temperature;BME280_humidity;BME280_pressure;Samples;Min_cycle;Max_cycle;Signal;HPM_P1;HPM_P2
2022/02/26 00:02:00;;;;;;;7.00;4.70;;;9.30;99.90;;;;;;5080876;28;20522;-65
2022/02/26 00:04:26;;;;;;;9.17;4.10;;;9.20;99.90;;;;;;5078140;28;20197;-66
2022/02/26 00:06:53;;;;;;;6.73;3.77;;;9.20;99.90;;;;;;5077159;28;20198;-66
2022/02/26 00:09:19;;;;;;;4.70;4.00;;;9.10;99.90;;;;;;5075377;28;20230;-65
2022/02/26 00:11:45;;;;;;;6.53;4.00;;;9.10;99.90;;;;;;5079809;28;20186;-65
2022/02/26 00:14:12;;;;;;;8.60;4.67;;;9.10;99.90;;;;;;5078121;28;20206;-66
2022/02/26 00:16:39;;;;;;;4.90;4.20;;;9.10;99.90;;;;;;5083449;28;20194;-65
2022/02/26 00:19:05;;;;;;;6.60;4.63;;;9.20;99.90;;;;;;5079695;28;20190;-65
2022/02/26 00:21:31;;;;;;;8.47;4.67;;;9.20;99.90;;;;;;5060132;28;20187;-66
2022/02/26 00:23:57;;;;;;;9.67;4.87;;;9.20;99.90;;;;;;5082725;28;20274;-66
2022/02/26 00:26:24;;;;;;;6.40;4.60;;;9.20;99.90;;;;;;5086754;28;20214;-66
2022/02/26 00:28:51;;;;;;;6.07;4.40;;;9.30;99.90;;;;;;5082842;28;20190;-66
2022/02/26 00:31:17;;;;;;;6.97;4.77;;;9.30;99.90;;;;;;5058676;28;20205;-65
2022/02/26 00:33:44;;;;;;;8.70;5.00;;;9.30;99.90;;;;;;5071844;28;20218;-65
2022/02/26 00:36:10;;;;;;;6.00;4.80;;;9.30;99.90;;;;;;5087961;28;20214;-66
2022/02/26 00:38:37;;;;;;;7.93;4.90;;;9.30;99.90;;;;;;5080794;28;20187;-66
2022/02/26 00:41:03;;;;;;;4.93;4.43;;;9.30;99.90;;;;;;5078321;28;20266;-65
2022/02/26 00:43:30;;;;;;;5.53;4.60;;;9.20;99.90;;;;;;5057696;28;20198;-65
2022/02/26 00:45:57;;;;;;;5.00;4.40;;;9.20;99.90;;;;;;5075353;28;20246;-65
2022/02/26 00:49:46;;;;;;;6.80;4.77;;;9.20;99.90;;;;;;5086262;28;20196;-65
2022/02/26 00:51:10;;;;;;;8.27;4.77;;;9.20;99.90;;;;;;5070302;28;20986;-65
2022/02/26 00:53:37;;;;;;;10.70;4.90;;;9.20;99.90;;;;;;5083918;28;20253;-66
2022/02/26 00:56:03;;;;;;;5.43;4.10;;;9.10;99.90;;;;;;5051565;28;20722;-65
2022/02/26 00:58:30;;;;;;;6.73;4.80;;;9.10;99.90;;;;;;5069200;28;20182;-65
2022/02/26 01:00:56;;;;;;;10.60;4.60;;;9.10;99.90;;;;;;5074537;28;20398;-65
2022/02/26 01:03:22;;;;;;;6.27;4.33;;;9.10;99.90;;;;;;5069541;28;20193;-66
2022/02/26 01:05:48;;;;;;;5.23;3.90;;;9.00;99.90;;;;;;5084551;28;20196;-65
2022/02/26 01:08:15;;;;;;;6.33;3.93;;;9.00;99.90;;;;;;5075275;28;20191;-66
2022/02/26 01:10:41;;;;;;;7.20;4.53;;;8.90;99.90;;;;;;5085813;28;20202;-65
2022/02/26 01:13:08;;;;;;;8.13;4.63;;;8.90;99.90;;;;;;5086001;28;20642;-65
2022/02/26 01:15:34;;;;;;;6.20;4.33;;;9.00;99.90;;;;;;5085508;28;20286;-66
2022/02/26 01:18:01;;;;;;;8.43;4.03;;;8.90;99.90;;;;;;5073319;28;20543;-66
2022/02/26 01:20:27;;;;;;;6.60;3.93;;;8.90;99.90;;;;;;5081383;28;20266;-65
2022/02/26 01:22:54;;;;;;;9.70;4.50;;;8.80;99.90;;;;;;5088941;28;20182;-65
2022/02/26 01:25:20;;;;;;;6.70;4.27;;;8.80;99.90;;;;;;5087657;28;20193;-66
2022/02/26 01:27:46;;;;;;;7.63;4.00;;;8.80;99.90;;;;;;5082812;28;20202;-65
2022/02/26 01:30:13;;;;;;;6.07;4.10;;;8.80;99.90;;;;;;5080684;28;20368;-65
2022/02/26 01:32:42;;;;;;;6.27;4.10;;;8.80;99.90;;;;;;5072632;28;20217;-67
2022/02/26 01:35:10;;;;;;;6.90;4.27;;;8.80;99.90;;;;;;5077118;28;20214;-64
2022/02/26 01:37:36;;;;;;;6.83;4.07;;;8.80;99.90;;;;;;5069110;28;20214;-65
2022/02/26 01:40:05;;;;;;;10.50;3.90;;;8.70;99.90;;;;;;5084209;28;20613;-66
2022/02/26 01:42:31;;;;;;;9.60;4.33;;;8.70;99.90;;;;;;5097425;28;20204;-66
2022/02/26 01:44:57;;;;;;;5.63;4.20;;;8.70;99.90;;;;;;5067316;28;20198;-65
2022/02/26 01:47:24;;;;;;;4.57;3.70;;;8.70;99.90;;;;;;5079623;28;20187;-66
2022/02/26 01:49:50;;;;;;;7.90;4.13;;;8.70;99.90;;;;;;5071877;28;20582;-66
2022/02/26 01:52:19;;;;;;;5.67;4.43;;;8.70;99.90;;;;;;5076433;28;20194;-66
2022/02/26 01:54:47;;;;;;;5.83;3.90;;;8.60;99.90;;;;;;5077437;28;20283;-65
2022/02/26 01:57:15;;;;;;;12.73;4.20;;;8.60;99.90;;;;;;5077780;28;20189;-65
2022/02/26 01:59:41;;;;;;;7.10;4.10;;;8.60;99.90;;;;;;5080789;28;20190;-64
2022/02/26 02:02:08;;;;;;;6.03;4.13;;;8.50;99.90;;;;;;5073036;28;20190;-67
2022/02/26 02:04:35;;;;;;;6.10;4.00;;;8.50;99.90;;;;;;5070598;28;20201;-65
2022/02/26 02:07:01;;;;;;;7.87;4.10;;;8.60;99.90;;;;;;5080765;28;20202;-66
2022/02/26 02:09:28;;;;;;;11.13;3.73;;;8.60;99.90;;;;;;5062315;28;20202;-65
2022/02/26 02:11:56;;;;;;;7.70;4.00;;;8.60;99.90;;;;;;5079323;28;20254;-67
2022/02/26 02:14:22;;;;;;;9.90;4.20;;;8.60;99.90;;;;;;5086320;28;20214;-65
2022/02/26 02:16:48;;;;;;;4.97;3.60;;;8.50;99.90;;;;;;5105762;27;20252;-65
2022/02/26 02:19:15;;;;;;;6.10;4.20;;;8.50;99.90;;;;;;5076015;28;20272;-66
2022/02/26 02:21:44;;;;;;;4.60;3.70;;;8.50;99.90;;;;;;5080827;28;20722;-65
2022/02/26 02:24:10;;;;;;;6.23;4.77;;;8.50;99.90;;;;;;5054258;28;20206;-65
2022/02/26 02:26:37;;;;;;;5.77;3.90;;;8.50;99.90;;;;;;5080806;28;20187;-66
2022/02/26 02:29:04;;;;;;;7.83;4.40;;;8.50;99.90;;;;;;5067822;28;20261;-65
2022/02/26 02:31:30;;;;;;;4.30;3.47;;;8.50;99.90;;;;;;5073359;28;20287;-66
2022/02/26 02:33:57;;;;;;;8.13;4.67;;;8.50;99.90;;;;;;5086515;28;20213;-66
2022/02/26 02:36:23;;;;;;;6.97;4.10;;;8.50;99.90;;;;;;5084818;28;20520;-67
2022/02/26 02:38:50;;;;;;;5.17;3.97;;;8.60;99.90;;;;;;5071324;28;20182;-65
2022/02/26 02:41:16;;;;;;;6.50;4.30;;;8.60;99.90;;;;;;5067560;28;20186;-65
2022/02/26 02:43:42;;;;;;;5.77;4.40;;;8.60;99.90;;;;;;5082164;28;20272;-65
2022/02/26 02:46:09;;;;;;;5.37;4.40;;;8.60;99.90;;;;;;5082296;28;20910;-65
2022/02/26 02:48:36;;;;;;;7.57;4.40;;;8.60;99.90;;;;;;5083947;28;20217;-65
2022/02/26 02:51:03;;;;;;;5.23;4.00;;;8.70;99.90;;;;;;5074450;28;20244;-66
2022/02/26 02:53:29;;;;;;;5.37;4.83;;;8.70;99.90;;;;;;5079499;28;20198;-65
2022/02/26 02:55:55;;;;;;;5.80;4.57;;;8.60;99.90;;;;;;5075791;28;20292;-65
2022/02/26 02:58:26;;;;;;;6.93;4.60;;;8.70;99.90;;;;;;5067278;28;20193;-65
2022/02/26 03:00:55;;;;;;;6.83;4.47;;;8.70;99.90;;;;;;5074726;28;20189;-66
2022/02/26 03:03:22;;;;;;;7.33;4.23;;;8.70;99.90;;;;;;5072768;28;20182;-66
2022/02/26 03:05:48;;;;;;;10.37;4.60;;;8.70;99.90;;;;;;5075550;28;20198;-65
2022/02/26 03:08:15;;;;;;;5.60;4.43;;;8.70;99.90;;;;;;5075600;28;20198;-66
2022/02/26 03:10:41;;;;;;;7.73;4.20;;;8.70;99.90;;;;;;5074834;28;20202;-65
2022/02/26 03:13:08;;;;;;;9.23;4.80;;;8.60;99.90;;;;;;5085514;28;20281;-66
2022/02/26 03:15:34;;;;;;;8.07;4.33;;;8.60;99.90;;;;;;5081555;28;20371;-65
2022/02/26 03:18:01;;;;;;;7.43;4.33;;;8.60;99.90;;;;;;5081078;28;20236;-65
2022/02/26 03:20:27;;;;;;;5.97;4.77;;;8.50;99.90;;;;;;5083440;28;20193;-66
2022/02/26 03:22:54;;;;;;;7.77;4.87;;;8.50;99.90;;;;;;5078265;28;20190;-65
2022/02/26 03:25:23;;;;;;;8.10;4.60;;;8.50;99.90;;;;;;5083024;28;20206;-65
2022/02/26 03:27:51;;;;;;;5.77;4.40;;;8.60;99.90;;;;;;5084435;28;20186;-66
2022/02/26 03:30:18;;;;;;;7.40;4.20;;;8.60;99.90;;;;;;5072242;28;20190;-66
2022/02/26 03:32:44;;;;;;;5.73;4.00;;;8.60;99.90;;;;;;5084908;28;20222;-65
2022/02/26 03:35:11;;;;;;;5.13;3.83;;;8.60;99.90;;;;;;5084875;28;20894;-65
2022/02/26 03:37:38;;;;;;;7.73;3.90;;;8.50;99.90;;;;;;5078501;28;20202;-65
2022/02/26 03:40:06;;;;;;;6.07;4.10;;;8.50;99.90;;;;;;5070039;28;20190;-66
2022/02/26 03:42:33;;;;;;;5.53;3.73;;;8.40;99.90;;;;;;5076674;28;20204;-66
2022/02/26 03:44:59;;;;;;;5.23;4.40;;;8.40;99.90;;;;;;5066937;28;20193;-66
2022/02/26 03:47:25;;;;;;;5.07;4.03;;;8.40;99.90;;;;;;5070403;28;20201;-65
2022/02/26 03:49:52;;;;;;;6.50;3.83;;;8.40;99.90;;;;;;5074079;28;20689;-65
2022/02/26 03:52:20;;;;;;;6.10;3.97;;;8.40;99.90;;;;;;5065988;28;20191;-66
2022/02/26 03:54:46;;;;;;;14.80;4.40;;;8.40;99.90;;;;;;5075822;28;20210;-66
2022/02/26 03:57:13;;;;;;;8.23;4.23;;;8.50;99.90;;;;;;5081592;28;20190;-65
2022/02/26 03:59:39;;;;;;;4.80;4.17;;;8.50;99.90;;;;;;5078471;28;20191;-65
2022/02/26 04:02:05;;;;;;;6.77;4.03;;;8.40;99.90;;;;;;5073011;28;20187;-66
2022/02/26 04:04:32;;;;;;;6.83;4.40;;;8.40;99.90;;;;;;5069976;28;20229;-65
2022/02/26 04:06:58;;;;;;;5.83;4.13;;;8.40;99.90;;;;;;5075057;28;20532;-65
2022/02/26 04:09:25;;;;;;;5.07;4.50;;;8.40;99.90;;;;;;5076918;28;20195;-65
2022/02/26 04:11:51;;;;;;;6.90;4.67;;;8.50;99.90;;;;;;5085352;28;20593;-65
2022/02/26 04:14:17;;;;;;;5.97;4.73;;;8.50;99.90;;;;;;5086400;28;20206;-66
2022/02/26 04:16:45;;;;;;;6.67;4.70;;;8.60;99.90;;;;;;5071623;28;20311;-66
2022/02/26 04:19:11;;;;;;;4.93;4.43;;;8.50;99.90;;;;;;5078816;28;20202;-65
2022/02/26 04:21:38;;;;;;;5.33;4.40;;;8.50;99.90;;;;;;5094367;28;20182;-66
2022/02/26 04:24:04;;;;;;;6.63;4.73;;;8.50;99.90;;;;;;5086128;28;20200;-65
2022/02/26 04:26:31;;;;;;;8.70;5.03;;;8.50;99.90;;;;;;5073057;28;20173;-65
2022/02/26 04:28:57;;;;;;;7.60;5.27;;;8.50;99.90;;;;;;5087871;28;20175;-65
2022/02/26 04:31:24;;;;;;;6.00;4.60;;;8.50;99.90;;;;;;5074661;28;20183;-66
2022/02/26 04:33:51;;;;;;;6.13;4.80;;;8.50;99.90;;;;;;5071172;28;20203;-65
2022/02/26 04:36:18;;;;;;;6.20;5.20;;;8.50;99.90;;;;;;5071891;28;20218;-66
2022/02/26 04:38:46;;;;;;;5.77;4.43;;;8.60;99.90;;;;;;5075293;28;20189;-66
2022/02/26 04:41:13;;;;;;;6.17;5.07;;;8.60;99.90;;;;;;5073775;28;20639;-65
2022/02/26 04:43:43;;;;;;;7.50;4.77;;;8.60;99.90;;;;;;5075486;28;20643;-66
2022/02/26 04:46:09;;;;;;;7.53;4.97;;;8.60;99.90;;;;;;5070379;28;20210;-65
2022/02/26 04:48:36;;;;;;;8.10;4.90;;;8.60;99.90;;;;;;5084876;28;20187;-65
2022/02/26 04:51:08;;;;;;;6.97;4.40;;;8.60;99.90;;;;;;5073336;28;20182;-64
2022/02/26 04:53:39;;;;;;;8.23;4.70;;;8.60;99.90;;;;;;5081577;28;20289;-65
2022/02/26 04:56:07;;;;;;;6.60;4.87;;;8.60;99.90;;;;;;5082586;28;20316;-67
2022/02/26 04:58:35;;;;;;;8.70;4.90;;;8.70;99.90;;;;;;5087664;28;20191;-65
2022/02/26 05:01:03;;;;;;;7.77;4.47;;;8.60;99.90;;;;;;5087880;28;20457;-64
2022/02/26 05:03:30;;;;;;;8.03;4.33;;;8.60;99.90;;;;;;5082548;28;20231;-65
2022/02/26 05:05:57;;;;;;;4.63;3.90;;;8.60;99.90;;;;;;5083825;28;20195;-64
2022/02/26 05:08:23;;;;;;;4.20;3.60;;;8.50;99.90;;;;;;5067716;28;20186;-66
2022/02/26 05:10:49;;;;;;;6.40;4.00;;;8.60;99.90;;;;;;5069507;28;20186;-66
2022/02/26 05:13:16;;;;;;;7.57;4.13;;;8.60;99.90;;;;;;5085791;28;20190;-64
2022/02/26 05:15:42;;;;;;;6.10;3.80;;;8.60;99.90;;;;;;5092126;28;20203;-65
2022/02/26 05:18:09;;;;;;;4.47;3.63;;;8.60;99.90;;;;;;5075916;28;20584;-64
2022/02/26 05:20:35;;;;;;;6.50;4.67;;;8.60;99.90;;;;;;5064466;28;20186;-66
2022/02/26 05:23:02;;;;;;;4.83;3.87;;;8.60;99.90;;;;;;5060737;28;21200;-66
2022/02/26 05:25:28;;;;;;;5.00;4.20;;;8.70;99.90;;;;;;5087896;28;20269;-66
2022/02/26 05:27:54;;;;;;;9.43;4.00;;;8.70;99.90;;;;;;5061623;28;20186;-64
2022/02/26 05:30:21;;;;;;;6.33;4.20;;;8.70;99.90;;;;;;5076541;28;20190;-65
2022/02/26 05:32:47;;;;;;;6.00;3.87;;;8.80;99.90;;;;;;5078202;28;20210;-65
2022/02/26 05:35:13;;;;;;;7.90;4.33;;;8.80;99.90;;;;;;5087103;28;20218;-67
2022/02/26 05:37:40;;;;;;;4.57;4.17;;;8.80;99.90;;;;;;5077557;28;20191;-66
2022/02/26 05:40:07;;;;;;;6.43;4.40;;;8.90;99.90;;;;;;5102199;28;20673;-65
2022/02/26 05:42:34;;;;;;;9.37;4.90;;;9.00;99.90;;;;;;5075376;28;20202;-65
2022/02/26 05:45:00;;;;;;;6.67;4.70;;;9.10;99.90;;;;;;5081602;28;20240;-65
2022/02/26 05:47:26;;;;;;;9.70;5.30;;;9.20;99.90;;;;;;5073426;28;20268;-66
2022/02/26 05:49:53;;;;;;;7.07;4.83;;;9.20;99.90;;;;;;5082579;28;20677;-65
2022/02/26 05:52:19;;;;;;;8.83;4.77;;;9.30;99.90;;;;;;5080727;28;20194;-65
2022/02/26 05:54:45;;;;;;;6.53;4.70;;;9.30;99.90;;;;;;5085239;28;20202;-66
2022/02/26 05:57:12;;;;;;;8.67;5.30;;;9.40;99.90;;;;;;5089022;28;20170;-65
2022/02/26 05:59:38;;;;;;;7.70;5.47;;;9.40;99.90;;;;;;5085728;28;20182;-65
2022/02/26 06:02:04;;;;;;;9.33;5.63;;;9.50;99.90;;;;;;5079726;28;20535;-65
2022/02/26 06:04:31;;;;;;;7.63;5.67;;;9.50;99.90;;;;;;5076743;28;20278;-65
2022/02/26 06:06:57;;;;;;;9.17;5.40;;;9.60;99.90;;;;;;5085421;28;20208;-65
2022/02/26 06:09:23;;;;;;;9.27;6.20;;;9.60;99.90;;;;;;5086524;28;20182;-65
2022/02/26 06:11:50;;;;;;;10.33;6.50;;;9.60;99.90;;;;;;5104077;28;20231;-66
2022/02/26 06:14:16;;;;;;;10.47;6.50;;;9.70;99.90;;;;;;5073365;28;20297;-65
2022/02/26 06:16:42;;;;;;;11.37;7.97;;;9.70;99.90;;;;;;5098655;28;20293;-65
2022/02/26 06:19:08;;;;;;;8.30;6.50;;;9.70;99.90;;;;;;5088311;28;20186;-65
2022/02/26 06:21:35;;;;;;;12.67;6.90;;;9.80;99.90;;;;;;5080349;28;20189;-66
2022/02/26 06:24:02;;;;;;;8.10;7.30;;;9.80;99.90;;;;;;5085214;28;20190;-66
2022/02/26 06:26:28;;;;;;;9.13;6.97;;;9.90;99.90;;;;;;5083342;28;20281;-65
2022/02/26 06:28:55;;;;;;;11.63;7.03;;;9.90;99.90;;;;;;5083212;28;20186;-65
2022/02/26 06:31:22;;;;;;;9.30;6.53;;;9.90;99.90;;;;;;5068171;28;20607;-65
2022/02/26 06:33:48;;;;;;;11.17;6.80;;;10.00;99.90;;;;;;5067295;28;20273;-66
2022/02/26 06:36:14;;;;;;;9.70;7.23;;;10.10;99.90;;;;;;5067722;28;20210;-66
2022/02/26 06:38:41;;;;;;;13.57;7.40;;;10.10;99.90;;;;;;5065790;28;20306;-65
2022/02/26 06:41:11;;;;;;;10.83;6.33;;;10.10;99.90;;;;;;5089571;28;20186;-65
2022/02/26 06:43:40;;;;;;;11.37;7.37;;;10.10;99.90;;;;;;5083869;28;20186;-66
2022/02/26 06:46:08;;;;;;;12.47;7.50;;;10.10;99.90;;;;;;5067784;28;20240;-65
2022/02/26 06:48:35;;;;;;;12.80;6.87;;;10.20;99.90;;;;;;5096022;28;20236;-65
2022/02/26 06:51:01;;;;;;;12.67;6.53;;;10.20;99.90;;;;;;5085832;28;20216;-66
2022/02/26 06:53:28;;;;;;;11.47;7.43;;;10.20;99.90;;;;;;5085881;28;20194;-65
2022/02/26 06:55:54;;;;;;;9.20;6.10;;;10.30;99.90;;;;;;5082890;28;20206;-65
2022/02/26 06:58:21;;;;;;;12.17;6.60;;;10.30;99.90;;;;;;5079554;28;20198;-65
2022/02/26 07:00:47;;;;;;;10.13;6.50;;;10.40;99.90;;;;;;5084484;28;20539;-66
2022/02/26 07:03:13;;;;;;;9.93;5.70;;;10.40;99.90;;;;;;5082106;28;20269;-66
2022/02/26 07:05:40;;;;;;;15.27;6.07;;;10.50;99.90;;;;;;5075566;28;20417;-65
2022/02/26 07:08:06;;;;;;;15.67;5.50;;;10.50;99.90;;;;;;5077779;28;20191;-65
2022/02/26 07:10:32;;;;;;;11.73;5.60;;;10.60;99.90;;;;;;5087020;28;20182;-66
2022/02/26 07:12:58;;;;;;;9.00;5.50;;;10.60;99.90;;;;;;5074915;28;20190;-65
2022/02/26 07:15:25;;;;;;;8.00;5.43;;;10.70;99.90;;;;;;5089572;28;20211;-65
2022/02/26 07:17:51;;;;;;;9.80;5.40;;;10.80;99.90;;;;;;5072829;28;20258;-65
2022/02/26 07:20:17;;;;;;;10.90;5.63;;;10.80;99.90;;;;;;5077673;28;20182;-65
2022/02/26 07:22:44;;;;;;;8.50;5.13;;;10.80;99.90;;;;;;5075325;28;20516;-66
2022/02/26 07:25:10;;;;;;;7.23;4.97;;;10.90;99.90;;;;;;5075879;28;20201;-66
2022/02/26 07:27:37;;;;;;;7.93;5.00;;;11.00;99.90;;;;;;5074511;28;20212;-66
2022/02/26 07:30:05;;;;;;;10.67;5.40;;;11.00;99.90;;;;;;5075056;28;20273;-65
2022/02/26 07:32:32;;;;;;;11.33;5.10;;;11.10;99.90;;;;;;5072884;28;20272;-66
2022/02/26 07:34:59;;;;;;;7.70;4.37;;;11.20;99.90;;;;;;5089881;28;20222;-66
2022/02/26 07:37:26;;;;;;;12.13;5.10;;;11.20;99.90;;;;;;5066888;28;20260;-66
2022/02/26 07:39:54;;;;;;;7.53;4.33;;;11.20;99.90;;;;;;5067183;28;20182;-66
2022/02/26 07:42:20;;;;;;;6.13;4.40;;;11.30;99.90;;;;;;5070059;28;20233;-65
2022/02/26 07:44:46;;;;;;;7.50;4.40;;;11.40;99.90;;;;;;5080184;28;20193;-66
2022/02/26 07:47:13;;;;;;;5.50;4.43;;;11.50;99.90;;;;;;5077157;28;20618;-65
2022/02/26 07:49:39;;;;;;;6.70;4.40;;;11.50;99.90;;;;;;5083633;28;20254;-65
2022/02/26 07:52:06;;;;;;;6.63;4.23;;;11.60;99.90;;;;;;5081647;28;20199;-65
2022/02/26 07:54:32;;;;;;;12.13;5.63;;;11.70;99.90;;;;;;5070949;28;20297;-66
2022/02/26 07:56:58;;;;;;;7.07;4.77;;;11.80;99.90;;;;;;5068450;28;20186;-65
2022/02/26 07:59:25;;;;;;;6.87;4.23;;;11.90;99.90;;;;;;5081573;28;20289;-66
2022/02/26 08:01:53;;;;;;;10.07;4.13;;;12.00;99.90;;;;;;5085422;28;20177;-66
2022/02/26 08:04:20;;;;;;;7.83;4.57;;;12.10;99.90;;;;;;5076205;28;20269;-66
2022/02/26 08:06:48;;;;;;;8.67;4.40;;;12.20;99.90;;;;;;5073729;28;20210;-66
2022/02/26 08:09:14;;;;;;;9.67;4.77;;;12.30;99.90;;;;;;5073043;28;20221;-66
2022/02/26 08:11:41;;;;;;;6.97;4.27;;;12.50;99.90;;;;;;5076834;28;20187;-66
2022/02/26 08:14:07;;;;;;;6.97;4.30;;;12.50;99.90;;;;;;5088282;28;20307;-65
2022/02/26 08:16:34;;;;;;;7.23;3.93;;;12.40;99.90;;;;;;5080479;28;20187;-67
2022/02/26 08:19:00;;;;;;;7.67;4.47;;;12.40;99.90;;;;;;5074874;28;20186;-67
2022/02/26 08:21:26;;;;;;;9.13;4.27;;;12.50;99.90;;;;;;5072511;28;20540;-66
2022/02/26 08:23:53;;;;;;;5.50;3.80;;;12.60;99.90;;;;;;5076904;28;20194;-65
2022/02/26 08:26:20;;;;;;;6.23;4.00;;;12.60;99.90;;;;;;5078829;28;20192;-65
2022/02/26 08:28:47;;;;;;;6.07;3.33;;;12.60;99.90;;;;;;5074413;28;20182;-66
2022/02/26 08:31:14;;;;;;;9.53;3.30;;;12.60;99.90;;;;;;5079200;28;20615;-66
2022/02/26 08:33:40;;;;;;;6.97;2.87;;;12.60;99.90;;;;;;5074452;28;20217;-66
2022/02/26 08:36:06;;;;;;;4.20;2.67;;;12.70;99.90;;;;;;5074309;28;20207;-65
2022/02/26 08:38:33;;;;;;;6.53;2.37;;;12.70;99.90;;;;;;5074448;28;20201;-66
2022/02/26 08:41:00;;;;;;;4.87;2.20;;;12.80;99.90;;;;;;5082883;28;20269;-66
2022/02/26 08:43:27;;;;;;;5.00;2.00;;;12.80;99.90;;;;;;5079179;28;20288;-66
2022/02/26 08:45:54;;;;;;;8.70;2.40;;;12.90;99.90;;;;;;5094791;28;20671;-65
2022/02/26 08:48:20;;;;;;;7.57;2.00;;;12.90;99.90;;;;;;5082936;28;20190;-66
2022/02/26 08:50:47;;;;;;;3.83;2.07;;;12.90;99.90;;;;;;5074079;28;20183;-66
2022/02/26 08:53:13;;;;;;;5.33;2.60;;;13.00;99.90;;;;;;5074155;28;20542;-65
2022/02/26 08:55:39;;;;;;;4.77;2.37;;;13.00;99.90;;;;;;5079492;28;20302;-66
2022/02/26 08:58:06;;;;;;;7.67;2.63;;;13.00;99.90;;;;;;5072673;28;20670;-66
2022/02/26 09:00:33;;;;;;;5.17;2.63;;;13.00;99.90;;;;;;5077718;28;20520;-65
2022/02/26 09:02:59;;;;;;;5.77;2.60;;;13.00;99.90;;;;;;5077845;28;20195;-66
2022/02/26 09:05:25;;;;;;;4.23;2.63;;;13.00;99.90;;;;;;5074349;28;20257;-67
2022/02/26 09:07:52;;;;;;;4.07;2.50;;;13.00;99.90;;;;;;5073625;28;20198;-65
2022/02/26 09:10:18;;;;;;;4.93;2.43;;;13.40;99.90;;;;;;5086055;28;20630;-66
2022/02/26 09:12:45;;;;;;;8.87;2.30;;;13.50;99.90;;;;;;5073221;28;20289;-66
2022/02/26 09:15:12;;;;;;;4.33;2.57;;;13.50;99.90;;;;;;5085042;28;20275;-66
2022/02/26 09:17:38;;;;;;;4.73;2.83;;;13.50;99.90;;;;;;5078453;28;20191;-65
2022/02/26 09:20:05;;;;;;;3.73;2.40;;;13.50;99.90;;;;;;5070370;28;20193;-65
2022/02/26 09:22:31;;;;;;;7.07;3.17;;;13.50;99.90;;;;;;5095453;28;20586;-67
2022/02/26 09:24:59;;;;;;;6.10;2.87;;;13.70;99.90;;;;;;5080700;28;20194;-65
2022/02/26 09:27:26;;;;;;;9.03;3.07;;;13.80;99.90;;;;;;5082872;28;20840;-65
2022/02/26 09:29:52;;;;;;;5.23;3.00;;;13.90;99.90;;;;;;5080523;28;20296;-66
2022/02/26 09:32:19;;;;;;;5.40;3.17;;;14.00;99.90;;;;;;5077276;28;20218;-65
2022/02/26 09:34:46;;;;;;;4.83;2.80;;;14.00;99.90;;;;;;5074557;28;20214;-66
2022/02/26 09:37:12;;;;;;;5.73;3.10;;;14.00;99.90;;;;;;5082092;28;20199;-65
2022/02/26 09:39:38;;;;;;;5.33;2.97;;;14.10;99.90;;;;;;5084406;28;20236;-64
2022/02/26 09:42:06;;;;;;;9.23;3.10;;;14.10;99.90;;;;;;5077593;28;20194;-65
2022/02/26 09:44:32;;;;;;;5.37;2.83;;;14.10;99.90;;;;;;5080486;28;20554;-66
2022/02/26 09:46:59;;;;;;;4.77;2.47;;;14.00;99.90;;;;;;5068772;28;20183;-66
2022/02/26 09:49:26;;;;;;;5.83;2.77;;;13.90;99.90;;;;;;5070099;28;20198;-67
2022/02/26 09:51:52;;;;;;;5.40;2.70;;;13.80;99.90;;;;;;5073439;28;20398;-66
2022/02/26 09:54:19;;;;;;;5.93;3.17;;;13.80;99.90;;;;;;5076228;28;20278;-67
2022/02/26 09:56:45;;;;;;;4.13;3.13;;;13.80;99.90;;;;;;5069362;28;20248;-66
2022/02/26 09:59:13;;;;;;;5.63;2.80;;;13.70;99.90;;;;;;5066877;28;20189;-66
2022/02/26 10:02:08;;;;;;;7.83;3.70;;;13.70;99.90;;;;;;5074748;28;20626;-65
2022/02/26 10:04:37;;;;;;;9.13;3.17;;;14.00;99.90;;;;;;5069120;28;20206;-65
2022/02/26 10:07:17;;;;;;;4.03;2.93;;;14.40;99.90;;;;;;5078473;28;20216;-66
2022/02/26 10:09:45;;;;;;;10.70;3.90;;;14.40;99.90;;;;;;5075906;28;20254;-65
2022/02/26 10:12:36;;;;;;;6.03;3.57;;;14.30;99.90;;;;;;5075600;28;20198;-66
2022/02/26 10:15:19;;;;;;;5.43;3.43;;;14.20;99.90;;;;;;5081280;28;20209;-65
2022/02/26 10:17:46;;;;;;;5.60;3.63;;;14.00;99.90;;;;;;5072852;28;20191;-66
2022/02/26 10:20:17;;;;;;;5.13;3.50;;;14.00;99.90;;;;;;5076804;28;20343;-66
2022/02/26 10:22:50;;;;;;;12.93;4.00;;;13.90;99.90;;;;;;5076697;28;20674;-66
2022/02/26 10:25:21;;;;;;;8.93;3.60;;;13.90;99.90;;;;;;5085271;28;20288;-66
2022/02/26 10:27:52;;;;;;;8.03;3.87;;;13.90;99.90;;;;;;5062662;28;20191;-66
2022/02/26 10:30:31;;;;;;;8.10;3.50;;;13.90;99.90;;;;;;5095907;27;20507;-66
2022/02/26 10:33:23;;;;;;;4.80;3.57;;;13.90;99.90;;;;;;5069066;28;20222;-67
2022/02/26 10:35:56;;;;;;;8.53;3.40;;;14.00;99.90;;;;;;5099762;28;20242;-65
2022/02/26 10:38:31;;;;;;;6.20;3.37;;;14.00;99.90;;;;;;5072467;28;20280;-66
2022/02/26 10:41:07;;;;;;;7.33;3.50;;;14.00;99.90;;;;;;5071429;28;21086;-66
2022/02/26 10:43:42;;;;;;;8.93;3.53;;;14.10;99.90;;;;;;5068648;28;20206;-66
2022/02/26 10:47:17;;;;;;;11.23;3.53;;;14.10;99.90;;;;;;5068713;28;20588;-66
2022/02/26 10:49:47;;;;;;;6.03;4.17;;;14.10;99.90;;;;;;5064875;28;20989;-65
2022/02/26 10:52:16;;;;;;;8.37;3.90;;;14.00;99.90;;;;;;5073587;28;20186;-65
2022/02/26 10:54:51;;;;;;;6.50;4.03;;;14.00;99.90;;;;;;5081386;28;20305;-66
2022/02/26 10:57:18;;;;;;;6.07;3.80;;;13.90;99.90;;;;;;5084784;28;20189;-65
2022/02/26 10:59:53;;;;;;;10.90;4.20;;;13.90;99.90;;;;;;5067001;28;20194;-67
2022/02/26 11:02:23;;;;;;;8.70;3.87;;;13.90;99.90;;;;;;5073538;28;20208;-66
2022/02/26 11:04:52;;;;;;;8.97;4.60;;;13.80;99.90;;;;;;5076224;28;20194;-66
2022/02/26 11:07:19;;;;;;;8.80;4.20;;;13.80;99.90;;;;;;5071311;28;20289;-66
2022/02/26 11:09:52;;;;;;;6.73;4.23;;;13.90;99.90;;;;;;5057113;28;20193;-66
2022/02/26 11:12:22;;;;;;;6.03;4.10;;;13.80;99.90;;;;;;5080372;28;20201;-65
2022/02/26 11:14:58;;;;;;;9.77;3.77;;;13.80;99.90;;;;;;5076589;28;20213;-66
2022/02/26 11:17:28;;;;;;;6.87;4.17;;;13.80;99.90;;;;;;5043752;28;20182;-66
2022/02/26 11:20:03;;;;;;;7.27;4.37;;;13.70;99.90;;;;;;5062948;28;20276;-66
2022/02/26 11:22:29;;;;;;;7.07;4.10;;;13.70;99.90;;;;;;5066141;28;20186;-68
2022/02/26 11:24:56;;;;;;;6.30;3.63;;;13.70;99.90;;;;;;5065988;28;20214;-66
2022/02/26 11:27:27;;;;;;;5.27;3.70;;;13.70;99.90;;;;;;5056474;28;20277;-66
2022/02/26 11:29:55;;;;;;;7.13;4.80;;;13.70;99.90;;;;;;5078825;28;20193;-65
2022/02/26 11:32:31;;;;;;;8.97;4.33;;;13.70;99.90;;;;;;5084026;28;20256;-66
2022/02/26 11:35:21;;;;;;;8.37;4.57;;;13.70;99.90;;;;;;5085890;28;20589;-66
2022/02/26 11:37:51;;;;;;;8.60;3.90;;;13.80;99.90;;;;;;5080375;28;20181;-66
2022/02/26 11:40:18;;;;;;;6.27;4.00;;;13.80;99.90;;;;;;5084244;28;20201;-67
2022/02/26 11:42:46;;;;;;;6.83;4.70;;;13.90;99.90;;;;;;5087812;28;20750;-65
2022/02/26 11:45:25;;;;;;;9.77;4.50;;;14.00;99.90;;;;;;5098178;28;20231;-66
2022/02/26 11:48:00;;;;;;;12.83;4.83;;;14.00;99.90;;;;;;5062363;28;20292;-67
2022/02/26 11:50:37;;;;;;;7.37;4.40;;;14.00;99.90;;;;;;5074982;28;20232;-67
2022/02/26 11:53:20;;;;;;;10.00;4.40;;;14.00;99.90;;;;;;5065707;28;20193;-67
2022/02/26 11:55:55;;;;;;;11.17;5.07;;;14.00;99.90;;;;;;5071055;28;20261;-67
2022/02/26 11:58:34;;;;;;;7.43;4.40;;;14.00;99.90;;;;;;5087863;28;20188;-66
2022/02/26 12:01:08;;;;;;;9.47;4.57;;;14.00;99.90;;;;;;5085260;28;20344;-67
2022/02/26 12:03:50;;;;;;;6.70;4.40;;;14.00;99.90;;;;;;5098338;28;20189;-66
2022/02/26 12:06:39;;;;;;;9.53;5.17;;;13.90;99.90;;;;;;5100752;28;20177;-65
2022/02/26 12:09:12;;;;;;;14.47;4.80;;;14.00;99.90;;;;;;5082255;28;20252;-67
2022/02/26 12:11:46;;;;;;;10.27;4.90;;;14.00;99.90;;;;;;5088110;28;20201;-67
2022/02/26 12:14:30;;;;;;;9.00;4.47;;;14.00;99.90;;;;;;5076516;28;20549;-67
2022/02/26 12:17:03;;;;;;;12.17;4.80;;;14.00;99.90;;;;;;5074576;28;20400;-66
2022/02/26 12:19:30;;;;;;;8.37;4.47;;;14.00;99.90;;;;;;5088108;28;20291;-67
2022/02/26 12:22:01;;;;;;;10.27;4.60;;;14.00;99.90;;;;;;5076469;28;20324;-67
2022/02/26 12:24:33;;;;;;;12.23;4.73;;;14.00;99.90;;;;;;5076811;28;20197;-67
2022/02/26 12:27:32;;;;;;;9.97;5.00;;;14.00;99.90;;;;;;5093725;28;20815;-66
2022/02/26 12:30:14;;;;;;;9.23;5.40;;;14.00;99.90;;;;;;5079908;28;20758;-65
2022/02/26 12:33:02;;;;;;;11.27;5.83;;;14.00;99.90;;;;;;5079278;28;20315;-66
2022/02/26 12:35:37;;;;;;;11.17;5.60;;;14.00;99.90;;;;;;5074715;28;20214;-66
2022/02/26 12:38:51;;;;;;;11.67;6.10;;;14.00;99.90;;;;;;5084109;28;20944;-65
2022/02/26 12:41:35;;;;;;;12.00;7.47;;;14.00;99.90;;;;;;5040993;28;22496;-67
2022/02/26 12:44:04;;;;;;;13.63;7.90;;;13.90;99.90;;;;;;5068806;28;20191;-66
2022/02/26 12:46:35;;;;;;;15.00;7.50;;;13.90;99.90;;;;;;5082088;28;20234;-67
2022/02/26 12:49:04;;;;;;;12.93;8.00;;;13.80;99.90;;;;;;5080537;28;20679;-66
2022/02/26 12:51:33;;;;;;;12.50;8.27;;;13.70;99.90;;;;;;5083051;28;20198;-65
2022/02/26 12:54:01;;;;;;;11.57;7.60;;;13.60;99.90;;;;;;5086371;28;20818;-66
2022/02/26 12:56:37;;;;;;;10.70;8.00;;;13.50;99.90;;;;;;5086282;28;20306;-67
2022/02/26 12:59:18;;;;;;;12.90;7.37;;;13.40;99.90;;;;;;5085261;28;20273;-67